sensor_id;sensor_type;location;lat;lon;timestamp;P1;durP1;ratioP1;P2;durP2;ratioP2
19404;SDS011;9838;49.384;8.292;2023-06-22T00:07:44;1.80;;;1.27;;
19404;SDS011;9838;49.384;8.292;2023-06-22T00:17:46;1.73;;;1.20;;
19404;SDS011;9838;49.384;8.292;2023-06-22T00:27:48;2.10;;;1.30;;
19404;SDS011;9838;49.384;8.292;2023-06-22T00:37:49;1.90;;;1.15;;
19404;SDS011;9838;49.384;8.292;2023-06-22T00:47:52;1.42;;;1.00;;
19404;SDS011;9838;49.384;8.292;2023-06-22T00:57:55;3.35;;;1.30;;
19404;SDS011;9838;49.384;8.292;2023-06-22T01:18:05;2.13;;;1.42;;
19404;SDS011;9838;49.384;8.292;2023-06-22T01:38:32;2.67;;;1.58;;
19404;SDS011;9838;49.384;8.292;2023-06-22T01:48:34;2.83;;;1.23;;
19404;SDS011;9838;49.384;8.292;2023-06-22T01:58:37;4.65;;;1.50;;
19404;SDS011;9838;49.384;8.292;2023-06-22T02:09:01;4.32;;;1.77;;
19404;SDS011;9838;49.384;8.292;2023-06-22T02:19:03;2.50;;;1.80;;
19404;SDS011;9838;49.384;8.292;2023-06-22T02:29:08;4.93;;;1.80;;
19404;SDS011;9838;49.384;8.292;2023-06-22T02:39:10;3.20;;;1.73;;
19404;SDS011;9838;49.384;8.292;2023-06-22T02:49:12;4.80;;;1.95;;
19404;SDS011;9838;49.384;8.292;2023-06-22T02:59:14;3.42;;;1.95;;
19404;SDS011;9838;49.384;8.292;2023-06-22T03:09:18;3.15;;;2.20;;
19404;SDS011;9838;49.384;8.292;2023-06-22T03:19:20;3.33;;;1.95;;
19404;SDS011;9838;49.384;8.292;2023-06-22T03:29:23;3.13;;;2.20;;
19404;SDS011;9838;49.384;8.292;2023-06-22T03:39:27;3.50;;;2.22;;
19404;SDS011;9838;49.384;8.292;2023-06-22T03:49:29;3.95;;;2.53;;
19404;SDS011;9838;49.384;8.292;2023-06-22T03:59:31;3.35;;;2.38;;
19404;SDS011;9838;49.384;8.292;2023-06-22T04:09:33;4.10;;;2.67;;
19404;SDS011;9838;49.384;8.292;2023-06-22T04:19:35;2.88;;;2.33;;
19404;SDS011;9838;49.384;8.292;2023-06-22T04:29:37;3.28;;;2.50;;
19404;SDS011;9838;49.384;8.292;2023-06-22T04:39:44;3.70;;;2.10;;
19404;SDS011;9838;49.384;8.292;2023-06-22T04:49:46;4.25;;;2.50;;
19404;SDS011;9838;49.384;8.292;2023-06-22T04:59:48;3.83;;;2.75;;
19404;SDS011;9838;49.384;8.292;2023-06-22T05:09:49;4.47;;;2.65;;
19404;SDS011;9838;49.384;8.292;2023-06-22T05:19:51;3.50;;;2.50;;
19404;SDS011;9838;49.384;8.292;2023-06-22T05:29:53;4.88;;;2.53;;
19404;SDS011;9838;49.384;8.292;2023-06-22T05:39:55;3.22;;;2.67;;
19404;SDS011;9838;49.384;8.292;2023-06-22T05:49:58;4.18;;;2.95;;
19404;SDS011;9838;49.384;8.292;2023-06-22T06:00:00;4.20;;;3.42;;
19404;SDS011;9838;49.384;8.292;2023-06-22T06:10:01;4.05;;;3.08;;
19404;SDS011;9838;49.384;8.292;2023-06-22T06:20:04;3.85;;;2.97;;
19404;SDS011;9838;49.384;8.292;2023-06-22T06:30:08;3.10;;;2.47;;
19404;SDS011;9838;49.384;8.292;2023-06-22T06:40:11;3.67;;;2.85;;
19404;SDS011;9838;49.384;8.292;2023-06-22T06:50:13;4.20;;;2.83;;
19404;SDS011;9838;49.384;8.292;2023-06-22T07:00:15;3.55;;;2.78;;
19404;SDS011;9838;49.384;8.292;2023-06-22T07:10:17;4.35;;;2.40;;
19404;SDS011;9838;49.384;8.292;2023-06-22T07:20:19;3.47;;;2.55;;
19404;SDS011;9838;49.384;8.292;2023-06-22T07:30:20;3.33;;;2.45;;
19404;SDS011;9838;49.384;8.292;2023-06-22T07:40:22;3.65;;;2.00;;
19404;SDS011;9838;49.384;8.292;2023-06-22T07:50:24;2.15;;;1.63;;
19404;SDS011;9838;49.384;8.292;2023-06-22T08:00:26;1.85;;;1.23;;
19404;SDS011;9838;49.384;8.292;2023-06-22T08:10:28;1.60;;;1.20;;
19404;SDS011;9838;49.384;8.292;2023-06-22T08:20:30;2.25;;;1.45;;
19404;SDS011;9838;49.384;8.292;2023-06-22T08:30:32;1.92;;;1.10;;
19404;SDS011;9838;49.384;8.292;2023-06-22T08:40:34;2.03;;;1.30;;
19404;SDS011;9838;49.384;8.292;2023-06-22T08:50:36;1.85;;;1.05;;
19404;SDS011;9838;49.384;8.292;2023-06-22T09:00:38;2.10;;;1.10;;
19404;SDS011;9838;49.384;8.292;2023-06-22T09:10:39;1.90;;;1.30;;
19404;SDS011;9838;49.384;8.292;2023-06-22T09:20:41;3.67;;;1.40;;
19404;SDS011;9838;49.384;8.292;2023-06-22T09:30:43;1.92;;;1.02;;
19404;SDS011;9838;49.384;8.292;2023-06-22T09:40:46;2.00;;;1.50;;
19404;SDS011;9838;49.384;8.292;2023-06-22T09:50:47;2.30;;;1.38;;
19404;SDS011;9838;49.384;8.292;2023-06-22T10:00:49;2.30;;;1.40;;
19404;SDS011;9838;49.384;8.292;2023-06-22T10:10:51;2.92;;;1.40;;
19404;SDS011;9838;49.384;8.292;2023-06-22T10:20:53;2.80;;;1.70;;
19404;SDS011;9838;49.384;8.292;2023-06-22T10:30:55;3.25;;;1.50;;
19404;SDS011;9838;49.384;8.292;2023-06-22T10:40:57;4.47;;;1.58;;
19404;SDS011;9838;49.384;8.292;2023-06-22T10:50:59;2.28;;;1.42;;
19404;SDS011;9838;49.384;8.292;2023-06-22T11:01:01;2.65;;;1.50;;
19404;SDS011;9838;49.384;8.292;2023-06-22T11:11:04;3.03;;;1.42;;
19404;SDS011;9838;49.384;8.292;2023-06-22T11:21:05;4.13;;;1.50;;
19404;SDS011;9838;49.384;8.292;2023-06-22T11:31:07;2.13;;;1.30;;
19404;SDS011;9838;49.384;8.292;2023-06-22T11:41:10;2.50;;;1.50;;
19404;SDS011;9838;49.384;8.292;2023-06-22T11:51:12;3.88;;;1.70;;
19404;SDS011;9838;49.384;8.292;2023-06-22T12:01:14;4.13;;;1.73;;
19404;SDS011;9838;49.384;8.292;2023-06-22T12:11:16;1.80;;;1.35;;
19404;SDS011;9838;49.384;8.292;2023-06-22T12:21:18;2.72;;;1.50;;
19404;SDS011;9838;49.384;8.292;2023-06-22T12:31:19;3.17;;;1.65;;
19404;SDS011;9838;49.384;8.292;2023-06-22T12:41:22;2.25;;;1.55;;
19404;SDS011;9838;49.384;8.292;2023-06-22T12:51:24;3.78;;;1.65;;
19404;SDS011;9838;49.384;8.292;2023-06-22T13:01:26;2.47;;;1.42;;
19404;SDS011;9838;49.384;8.292;2023-06-22T13:11:28;4.10;;;1.52;;
19404;SDS011;9838;49.384;8.292;2023-06-22T13:21:30;2.55;;;1.70;;
19404;SDS011;9838;49.384;8.292;2023-06-22T13:31:32;2.58;;;1.65;;
19404;SDS011;9838;49.384;8.292;2023-06-22T13:41:34;2.38;;;1.38;;
19404;SDS011;9838;49.384;8.292;2023-06-22T13:51:36;2.70;;;1.33;;
19404;SDS011;9838;49.384;8.292;2023-06-22T14:01:38;3.13;;;1.40;;
19404;SDS011;9838;49.384;8.292;2023-06-22T14:11:41;2.10;;;1.23;;
19404;SDS011;9838;49.384;8.292;2023-06-22T14:21:43;3.72;;;1.70;;
19404;SDS011;9838;49.384;8.292;2023-06-22T14:31:48;2.90;;;1.75;;
19404;SDS011;9838;49.384;8.292;2023-06-22T14:41:50;3.90;;;1.58;;
19404;SDS011;9838;49.384;8.292;2023-06-22T14:51:52;3.30;;;1.58;;
19404;SDS011;9838;49.384;8.292;2023-06-22T15:01:54;4.22;;;1.60;;
19404;SDS011;9838;49.384;8.292;2023-06-22T15:11:55;2.33;;;1.70;;
19404;SDS011;9838;49.384;8.292;2023-06-22T15:21:58;3.50;;;1.88;;
19404;SDS011;9838;49.384;8.292;2023-06-22T15:32:00;6.82;;;1.98;;
19404;SDS011;9838;49.384;8.292;2023-06-22T15:42:02;3.00;;;1.63;;
19404;SDS011;9838;49.384;8.292;2023-06-22T15:52:03;2.58;;;1.48;;
19404;SDS011;9838;49.384;8.292;2023-06-22T16:02:06;3.75;;;1.70;;
19404;SDS011;9838;49.384;8.292;2023-06-22T16:12:07;4.53;;;1.73;;
19404;SDS011;9838;49.384;8.292;2023-06-22T16:22:09;3.38;;;1.90;;
19404;SDS011;9838;49.384;8.292;2023-06-22T16:32:12;4.60;;;1.90;;
19404;SDS011;9838;49.384;8.292;2023-06-22T16:42:15;2.97;;;1.02;;
19404;SDS011;9838;49.384;8.292;2023-06-22T16:52:20;1.80;;;1.10;;
19404;SDS011;9838;49.384;8.292;2023-06-22T17:02:23;1.88;;;1.17;;
19404;SDS011;9838;49.384;8.292;2023-06-22T17:12:26;3.70;;;1.40;;
19404;SDS011;9838;49.384;8.292;2023-06-22T17:22:29;2.88;;;1.23;;
19404;SDS011;9838;49.384;8.292;2023-06-22T17:32:36;1.40;;;0.90;;
19404;SDS011;9838;49.384;8.292;2023-06-22T17:42:37;5.85;;;1.00;;
19404;SDS011;9838;49.384;8.292;2023-06-22T17:52:39;2.90;;;1.27;;
19404;SDS011;9838;49.384;8.292;2023-06-22T18:02:41;2.55;;;0.80;;
19404;SDS011;9838;49.384;8.292;2023-06-22T18:12:43;1.38;;;1.02;;
19404;SDS011;9838;49.384;8.292;2023-06-22T18:22:47;1.63;;;0.70;;
19404;SDS011;9838;49.384;8.292;2023-06-22T18:32:49;1.75;;;0.90;;
19404;SDS011;9838;49.384;8.292;2023-06-22T18:42:56;4.07;;;0.80;;
19404;SDS011;9838;49.384;8.292;2023-06-22T18:53:03;1.35;;;0.50;;
19404;SDS011;9838;49.384;8.292;2023-06-22T19:03:05;6.18;;;0.70;;
19404;SDS011;9838;49.384;8.292;2023-06-22T19:13:26;0.52;;;0.40;;
19404;SDS011;9838;49.384;8.292;2023-06-22T19:23:32;0.63;;;0.35;;
19404;SDS011;9838;49.384;8.292;2023-06-22T19:33:35;2.40;;;0.50;;
19404;SDS011;9838;49.384;8.292;2023-06-22T19:43:37;0.25;;;0.20;;
19404;SDS011;9838;49.384;8.292;2023-06-22T19:53:39;0.57;;;0.28;;
19404;SDS011;9838;49.384;8.292;2023-06-22T20:03:42;2.13;;;0.35;;
19404;SDS011;9838;49.384;8.292;2023-06-22T20:13:48;0.30;;;0.20;;
19404;SDS011;9838;49.384;8.292;2023-06-22T20:23:50;0.80;;;0.30;;
19404;SDS011;9838;49.384;8.292;2023-06-22T20:34:04;0.93;;;0.35;;
19404;SDS011;9838;49.384;8.292;2023-06-22T20:44:06;0.47;;;0.25;;
19404;SDS011;9838;49.384;8.292;2023-06-22T20:54:08;0.20;;;0.20;;
19404;SDS011;9838;49.384;8.292;2023-06-22T21:04:10;0.20;;;0.20;;
19404;SDS011;9838;49.384;8.292;2023-06-22T21:14:12;0.38;;;0.20;;
19404;SDS011;9838;49.384;8.292;2023-06-22T21:24:14;0.38;;;0.20;;
19404;SDS011;9838;49.384;8.292;2023-06-22T21:34:15;0.20;;;0.20;;
19404;SDS011;9838;49.384;8.292;2023-06-22T21:44:17;0.30;;;0.28;;
19404;SDS011;9838;49.384;8.292;2023-06-22T21:54:19;0.88;;;0.35;;
19404;SDS011;9838;49.384;8.292;2023-06-22T22:04:21;1.35;;;0.38;;
19404;SDS011;9838;49.384;8.292;2023-06-22T22:14:23;0.25;;;0.22;;
19404;SDS011;9838;49.384;8.292;2023-06-22T22:24:25;0.35;;;0.30;;
19404;SDS011;9838;49.384;8.292;2023-06-22T22:34:27;0.35;;;0.30;;
19404;SDS011;9838;49.384;8.292;2023-06-22T22:44:29;0.38;;;0.25;;
19404;SDS011;9838;49.384;8.292;2023-06-22T22:54:31;0.20;;;0.20;;
19404;SDS011;9838;49.384;8.292;2023-06-22T23:04:33;0.20;;;0.20;;
19404;SDS011;9838;49.384;8.292;2023-06-22T23:14:36;0.30;;;0.20;;
19404;SDS011;9838;49.384;8.292;2023-06-22T23:24:37;1.58;;;0.20;;
19404;SDS011;9838;49.384;8.292;2023-06-22T23:34:40;0.47;;;0.40;;
19404;SDS011;9838;49.384;8.292;2023-06-22T23:44:44;0.52;;;0.30;;
19404;SDS011;9838;49.384;8.292;2023-06-22T23:54:46;0.47;;;0.40;;
